Time;durP1;ratioP1;P1;durP2;ratioP2;P2;SDS_P1;SDS_P2;PMS_P1;PMS_P2;Temp;Humidity;BMP_temperature;BMP_pressure;BME280_temperature;BME280_humidity;BME280_pressure;Samples;Min_cycle;Max_cycle;Signal;HPM_P1;HPM_P2
2022/05/05 00:01:40;;;;;;;4.00;2.30;;;7.10;99.90;;;;;;5032883;28;20041;-73
2022/05/05 00:04:06;;;;;;;8.60;2.78;;;7.10;99.90;;;;;;5033087;28;20042;-74
2022/05/05 00:06:32;;;;;;;7.20;2.67;;;7.00;99.90;;;;;;5033306;28;20030;-72
2022/05/05 00:08:58;;;;;;;5.05;2.88;;;7.00;99.90;;;;;;5032975;28;20546;-72
2022/05/05 00:14:24;;;;;;;5.10;2.92;;;7.00;99.90;;;;;;5034392;28;20048;-72
2022/05/05 00:16:54;;;;;;;4.43;2.67;;;6.90;99.90;;;;;;5032743;28;20477;-72
2022/05/05 00:19:20;;;;;;;4.28;2.47;;;6.90;99.90;;;;;;5032618;28;20024;-72
2022/05/05 00:21:46;;;;;;;3.63;2.80;;;6.90;99.90;;;;;;5031617;28;20394;-72
2022/05/05 00:24:12;;;;;;;5.95;2.88;;;6.90;99.90;;;;;;5032300;28;20040;-72
2022/05/05 00:26:38;;;;;;;3.50;1.80;;;6.80;99.90;;;;;;5033302;28;20451;-72
2022/05/05 00:29:04;;;;;;;4.22;2.28;;;6.70;99.90;;;;;;5033166;28;20041;-71
2022/05/05 00:31:30;;;;;;;4.38;2.90;;;6.70;99.90;;;;;;5032774;28;20048;-72
2022/05/05 00:33:56;;;;;;;5.03;2.47;;;6.70;99.90;;;;;;5032442;28;20022;-71
2022/05/05 00:36:22;;;;;;;5.78;2.60;;;6.70;99.90;;;;;;5033040;28;20037;-72
2022/05/05 00:38:47;;;;;;;2.83;1.77;;;6.60;99.90;;;;;;5032378;28;20390;-72
2022/05/05 00:41:13;;;;;;;3.05;2.05;;;6.60;99.90;;;;;;5033782;28;20120;-72
2022/05/05 00:43:39;;;;;;;12.93;3.40;;;6.60;99.90;;;;;;5032696;28;20045;-71
2022/05/05 00:46:05;;;;;;;6.35;2.67;;;6.60;99.90;;;;;;5039263;28;20111;-73
2022/05/05 00:48:31;;;;;;;6.93;2.58;;;6.60;99.90;;;;;;5032300;28;20022;-71
2022/05/05 00:50:57;;;;;;;12.98;3.22;;;6.50;99.90;;;;;;5032168;28;20124;-72
2022/05/05 00:53:23;;;;;;;3.33;2.35;;;6.60;99.90;;;;;;5032066;28;20097;-71
2022/05/05 00:55:54;;;;;;;8.02;3.00;;;6.60;99.90;;;;;;5032463;28;20053;-72
2022/05/05 00:58:20;;;;;;;3.22;1.90;;;6.60;99.90;;;;;;5032388;28;20470;-72
2022/05/05 01:00:46;;;;;;;8.85;2.67;;;6.60;99.90;;;;;;5032000;28;20049;-72
2022/05/05 01:03:13;;;;;;;11.10;3.05;;;6.60;99.90;;;;;;5032071;28;20158;-72
2022/05/05 01:05:40;;;;;;;3.70;2.45;;;6.60;99.90;;;;;;5032267;28;20045;-72
2022/05/05 01:08:06;;;;;;;5.55;2.60;;;6.50;99.90;;;;;;5033312;28;20034;-72
2022/05/05 01:10:32;;;;;;;6.85;2.42;;;6.50;99.90;;;;;;5031546;28;20025;-72
2022/05/05 01:12:58;;;;;;;5.10;2.38;;;6.50;99.90;;;;;;5032109;28;20025;-72
2022/05/05 01:15:24;;;;;;;4.82;2.78;;;6.50;99.90;;;;;;5032259;28;20037;-71
2022/05/05 01:17:50;;;;;;;5.13;2.75;;;6.50;99.90;;;;;;5031891;28;20029;-71
2022/05/05 01:20:19;;;;;;;2.85;2.08;;;6.50;99.90;;;;;;5031957;28;20025;-72
2022/05/05 01:22:45;;;;;;;4.13;2.17;;;6.50;99.90;;;;;;5032128;28;20029;-71
2022/05/05 01:28:10;;;;;;;5.40;2.88;;;6.40;99.90;;;;;;5032193;28;20076;-71
2022/05/05 01:30:38;;;;;;;6.82;3.00;;;6.40;99.90;;;;;;5033042;28;20103;-71
2022/05/05 01:33:15;;;;;;;9.00;3.15;;;6.30;99.90;;;;;;5029259;28;20537;-72
2022/05/05 01:35:42;;;;;;;3.63;2.08;;;6.30;99.90;;;;;;5031683;28;20026;-72
2022/05/05 01:38:10;;;;;;;4.60;2.65;;;6.20;99.90;;;;;;5032223;28;20056;-72
2022/05/05 01:40:36;;;;;;;5.40;3.17;;;6.20;99.90;;;;;;5031494;28;20037;-72
2022/05/05 01:43:03;;;;;;;5.72;3.28;;;6.20;99.90;;;;;;5031924;28;20025;-71
2022/05/05 01:45:30;;;;;;;8.45;3.20;;;6.10;99.90;;;;;;5033528;28;20045;-71
2022/05/05 01:47:57;;;;;;;10.93;2.88;;;6.10;99.90;;;;;;5034371;28;20073;-71
2022/05/05 01:50:24;;;;;;;7.40;2.67;;;6.10;99.90;;;;;;5036130;28;20036;-71
2022/05/05 01:52:50;;;;;;;6.05;3.00;;;6.10;99.90;;;;;;5035126;28;20358;-72
2022/05/05 01:55:16;;;;;;;5.07;2.50;;;6.10;99.90;;;;;;5034196;28;20025;-72
2022/05/05 01:57:41;;;;;;;5.00;2.95;;;6.10;99.90;;;;;;5035149;28;20103;-71
2022/05/05 02:00:08;;;;;;;2.60;1.98;;;6.10;99.90;;;;;;5035950;28;20025;-72
2022/05/05 02:02:34;;;;;;;7.05;2.40;;;6.00;99.90;;;;;;5034809;28;20014;-72
2022/05/05 02:04:59;;;;;;;5.03;2.47;;;6.00;99.90;;;;;;5035268;28;20042;-72
2022/05/05 02:07:25;;;;;;;6.55;2.83;;;6.10;99.90;;;;;;5035587;28;20029;-71
2022/05/05 02:09:50;;;;;;;7.25;2.88;;;5.90;99.90;;;;;;5034701;28;20026;-72
2022/05/05 02:12:16;;;;;;;8.35;3.28;;;5.90;99.90;;;;;;5035426;28;20081;-72
2022/05/05 02:14:41;;;;;;;6.75;3.15;;;5.90;99.90;;;;;;5034949;28;20032;-72
2022/05/05 02:17:07;;;;;;;5.57;2.38;;;5.90;99.90;;;;;;5035046;28;20021;-72
2022/05/05 02:19:34;;;;;;;3.97;2.00;;;5.90;99.90;;;;;;5035296;28;20029;-72
2022/05/05 02:22:00;;;;;;;8.98;2.95;;;5.80;99.90;;;;;;5034952;28;20089;-72
2022/05/05 02:24:25;;;;;;;6.90;3.25;;;5.80;99.90;;;;;;5034682;28;20076;-72
2022/05/05 02:26:51;;;;;;;10.38;2.38;;;5.70;99.90;;;;;;5035273;28;20059;-71
2022/05/05 02:29:16;;;;;;;4.65;2.80;;;5.70;99.90;;;;;;5034821;28;20026;-72
2022/05/05 02:31:42;;;;;;;7.97;2.97;;;5.70;99.90;;;;;;5035245;28;20032;-72
2022/05/05 02:34:10;;;;;;;6.47;2.47;;;5.70;99.90;;;;;;5035068;28;20539;-72
2022/05/05 02:39:22;;;;;;;9.80;2.45;;;5.80;99.90;;;;;;5034933;28;20066;-71
2022/05/05 02:41:48;;;;;;;4.32;2.63;;;5.80;99.90;;;;;;5034565;28;20022;-71
2022/05/05 02:44:14;;;;;;;5.40;2.55;;;5.70;99.90;;;;;;5033478;28;20041;-72
2022/05/05 02:46:40;;;;;;;5.65;3.05;;;5.70;99.90;;;;;;5034452;28;20770;-72
2022/05/05 02:49:06;;;;;;;6.95;2.53;;;5.70;99.90;;;;;;5034768;28;20044;-73
2022/05/05 02:51:32;;;;;;;4.85;2.63;;;5.70;99.90;;;;;;5034297;28;20107;-73
2022/05/05 02:56:42;;;;;;;4.47;2.70;;;5.60;99.90;;;;;;5034124;28;20033;-72
2022/05/05 02:59:08;;;;;;;6.78;3.08;;;5.70;99.90;;;;;;5034072;28;20037;-72
2022/05/05 03:01:38;;;;;;;4.72;2.30;;;5.50;99.90;;;;;;5034602;28;20033;-72
2022/05/05 03:04:04;;;;;;;5.43;2.03;;;5.60;99.90;;;;;;5034352;28;20524;-72
2022/05/05 03:06:30;;;;;;;6.00;3.03;;;5.70;99.90;;;;;;5034024;28;20017;-72
2022/05/05 03:08:55;;;;;;;4.55;2.85;;;5.50;99.90;;;;;;5034023;28;20036;-71
2022/05/05 03:11:21;;;;;;;6.95;2.90;;;5.50;99.90;;;;;;5033635;28;20034;-72
2022/05/05 03:13:46;;;;;;;11.50;2.85;;;5.50;99.90;;;;;;5033547;28;20850;-72
2022/05/05 03:16:12;;;;;;;9.60;2.80;;;5.40;99.90;;;;;;5034507;28;20089;-71
2022/05/05 03:18:40;;;;;;;5.10;2.40;;;5.50;99.90;;;;;;5033948;28;20029;-72
2022/05/05 03:21:07;;;;;;;5.85;2.42;;;5.40;99.90;;;;;;5034085;28;20022;-72
2022/05/05 03:23:32;;;;;;;6.10;2.65;;;5.40;99.90;;;;;;5033701;28;20030;-71
2022/05/05 03:25:58;;;;;;;4.85;2.00;;;5.30;99.90;;;;;;5032646;28;20168;-72
2022/05/05 03:28:24;;;;;;;3.83;2.55;;;5.30;99.90;;;;;;5033580;28;20025;-71
2022/05/05 03:30:49;;;;;;;7.63;2.70;;;5.30;99.90;;;;;;5033983;28;20025;-71
2022/05/05 03:33:15;;;;;;;6.10;3.13;;;5.30;99.90;;;;;;5033539;28;20029;-72
2022/05/05 03:35:41;;;;;;;6.45;3.33;;;5.30;99.90;;;;;;5033697;28;20081;-71
2022/05/05 03:38:07;;;;;;;4.13;2.08;;;5.30;99.90;;;;;;5033876;28;20035;-71
2022/05/05 03:40:32;;;;;;;7.28;2.83;;;5.30;99.90;;;;;;5031379;28;20044;-71
2022/05/05 03:42:58;;;;;;;6.32;2.80;;;5.20;99.90;;;;;;5033125;28;20030;-71
2022/05/05 03:45:23;;;;;;;10.23;2.97;;;5.30;99.90;;;;;;5033530;28;20092;-73
2022/05/05 03:47:49;;;;;;;5.45;3.05;;;5.30;99.90;;;;;;5033171;28;20081;-72
2022/05/05 03:50:15;;;;;;;4.72;2.78;;;5.10;99.90;;;;;;5033407;28;20018;-72
2022/05/05 03:52:41;;;;;;;6.00;2.92;;;5.00;99.90;;;;;;5033459;28;20038;-72
2022/05/05 03:55:07;;;;;;;4.78;2.70;;;5.00;99.90;;;;;;5033291;28;20024;-72
2022/05/05 03:57:36;;;;;;;6.72;3.10;;;5.10;99.90;;;;;;5033571;28;20063;-70
2022/05/05 04:00:04;;;;;;;6.63;3.67;;;5.00;99.90;;;;;;5033291;28;20072;-70
2022/05/05 04:02:30;;;;;;;5.68;3.40;;;5.10;99.90;;;;;;5033304;28;20112;-72
2022/05/05 04:04:56;;;;;;;3.80;2.53;;;5.10;99.90;;;;;;5031609;28;20038;-72
2022/05/05 04:07:21;;;;;;;5.97;2.97;;;5.10;99.90;;;;;;5032505;28;20033;-72
2022/05/05 04:09:47;;;;;;;9.98;3.42;;;5.20;99.90;;;;;;5032835;28;20033;-74
2022/05/05 04:12:13;;;;;;;4.88;2.25;;;5.20;99.90;;;;;;5033230;28;20036;-72
2022/05/05 04:14:38;;;;;;;4.03;2.38;;;5.20;99.90;;;;;;5033327;28;20026;-70
2022/05/05 04:17:05;;;;;;;5.32;2.33;;;5.20;99.90;;;;;;5032004;28;20065;-70
2022/05/05 04:19:30;;;;;;;10.52;3.97;;;5.20;99.90;;;;;;5032647;28;20053;-70
2022/05/05 04:21:56;;;;;;;6.82;3.22;;;5.30;99.90;;;;;;5032854;28;20029;-70
2022/05/05 04:24:21;;;;;;;4.03;2.72;;;5.40;99.90;;;;;;5032642;28;20421;-71
2022/05/05 04:26:47;;;;;;;6.68;3.10;;;5.30;99.90;;;;;;5033704;28;20052;-72
2022/05/05 04:29:13;;;;;;;7.55;2.97;;;5.40;99.90;;;;;;5031843;28;20021;-70
2022/05/05 04:31:41;;;;;;;5.45;2.50;;;5.40;99.90;;;;;;5032600;28;20030;-72
2022/05/05 04:34:08;;;;;;;7.35;2.75;;;5.50;99.90;;;;;;5032572;28;20057;-72
2022/05/05 04:36:35;;;;;;;8.88;3.13;;;5.50;99.90;;;;;;5032005;28;20034;-71
2022/05/05 04:39:03;;;;;;;7.10;3.03;;;5.50;99.90;;;;;;5032340;28;20386;-72
2022/05/05 04:41:29;;;;;;;6.55;2.75;;;5.60;99.90;;;;;;5033384;28;20100;-71
2022/05/05 04:43:54;;;;;;;5.78;3.35;;;5.60;99.90;;;;;;5032245;28;20501;-71
2022/05/05 04:46:20;;;;;;;10.27;2.55;;;5.70;99.90;;;;;;5033443;28;20041;-71
2022/05/05 04:48:45;;;;;;;13.38;3.60;;;5.70;99.90;;;;;;5032307;28;20025;-72
2022/05/05 04:51:11;;;;;;;5.88;3.05;;;5.80;99.90;;;;;;5032730;28;20099;-72
2022/05/05 04:53:37;;;;;;;7.78;3.13;;;5.80;99.90;;;;;;5032393;28;20026;-71
2022/05/05 04:56:03;;;;;;;7.55;3.83;;;5.90;99.90;;;;;;5032914;28;20057;-71
2022/05/05 04:58:31;;;;;;;10.63;3.53;;;5.90;99.90;;;;;;5032978;28;20029;-71
2022/05/05 05:00:57;;;;;;;15.23;3.25;;;6.00;99.90;;;;;;5032265;28;20034;-71
2022/05/05 05:03:39;;;;;;;8.63;3.17;;;6.00;99.90;;;;;;5031687;28;20111;-71
2022/05/05 05:06:10;;;;;;;24.17;4.03;;;6.10;99.90;;;;;;5032222;28;20132;-70
2022/05/05 05:08:36;;;;;;;5.60;3.08;;;6.10;99.90;;;;;;5032255;28;20022;-72
2022/05/05 05:11:02;;;;;;;8.57;3.70;;;6.10;99.90;;;;;;5032184;28;20029;-70
2022/05/05 05:13:28;;;;;;;9.57;3.05;;;6.20;99.90;;;;;;5032026;28;20025;-72
2022/05/05 05:15:53;;;;;;;8.93;3.08;;;6.20;99.90;;;;;;5030843;28;20025;-71
2022/05/05 05:18:19;;;;;;;10.23;3.00;;;6.20;99.90;;;;;;5032843;28;20030;-70
2022/05/05 05:20:45;;;;;;;6.32;3.20;;;6.30;99.90;;;;;;5035654;28;20026;-70
2022/05/05 05:23:11;;;;;;;8.55;2.90;;;6.40;99.90;;;;;;5035207;28;20387;-70
2022/05/05 05:25:37;;;;;;;6.35;3.17;;;6.50;99.90;;;;;;5036332;28;20454;-72
2022/05/05 05:28:03;;;;;;;6.80;2.92;;;6.60;99.90;;;;;;5036324;28;20044;-70
2022/05/05 05:30:28;;;;;;;7.13;2.92;;;6.60;99.90;;;;;;5035299;28;20034;-71
2022/05/05 05:32:54;;;;;;;4.47;2.90;;;6.70;99.90;;;;;;5035626;28;20053;-72
2022/05/05 05:35:20;;;;;;;7.70;3.22;;;6.80;99.90;;;;;;5035603;28;20048;-71
2022/05/05 05:37:46;;;;;;;6.78;3.08;;;6.90;99.90;;;;;;5035713;28;20018;-71
2022/05/05 05:40:11;;;;;;;3.72;2.20;;;7.00;99.90;;;;;;5035598;28;20014;-70
2022/05/05 05:42:37;;;;;;;12.57;3.22;;;7.10;99.90;;;;;;5035755;28;20072;-70
2022/05/05 05:45:03;;;;;;;5.75;2.70;;;7.20;99.90;;;;;;5035357;28;20049;-71
2022/05/05 05:47:29;;;;;;;12.15;2.65;;;7.30;99.90;;;;;;5036713;28;20030;-70
2022/05/05 05:49:55;;;;;;;6.03;2.80;;;7.50;99.90;;;;;;5034400;28;20030;-70
2022/05/05 05:52:21;;;;;;;7.10;3.67;;;7.60;99.90;;;;;;5035104;28;20018;-71
2022/05/05 05:54:46;;;;;;;7.32;2.80;;;7.70;99.90;;;;;;5035671;28;20029;-71
2022/05/05 05:57:12;;;;;;;4.40;2.67;;;7.80;99.90;;;;;;5034407;28;20029;-71
2022/05/05 05:59:37;;;;;;;12.52;3.08;;;7.90;99.90;;;;;;5035797;28;20053;-70
2022/05/05 06:04:47;;;;;;;7.30;2.70;;;8.10;99.90;;;;;;5035694;28;20103;-70
2022/05/05 06:07:12;;;;;;;5.85;2.35;;;8.10;99.90;;;;;;5034847;28;20041;-70
2022/05/05 06:09:39;;;;;;;6.13;2.65;;;8.30;99.90;;;;;;5035546;28;20034;-71
2022/05/05 06:12:06;;;;;;;4.65;2.33;;;8.40;99.90;;;;;;5034819;28;20462;-70
2022/05/05 06:14:32;;;;;;;9.57;3.55;;;8.60;99.90;;;;;;5034223;28;20049;-71
2022/05/05 06:16:57;;;;;;;4.20;2.40;;;8.70;99.90;;;;;;5035283;28;20018;-70
2022/05/05 06:19:23;;;;;;;4.32;2.67;;;8.80;99.90;;;;;;5034295;28;20030;-70
2022/05/05 06:21:50;;;;;;;3.45;2.17;;;8.90;99.90;;;;;;5033025;28;20033;-69
2022/05/05 06:24:16;;;;;;;3.72;1.95;;;9.00;99.90;;;;;;5034589;28;20025;-69
2022/05/05 06:26:41;;;;;;;9.75;2.78;;;9.20;99.90;;;;;;5034902;28;20026;-72
2022/05/05 06:29:07;;;;;;;7.75;2.20;;;9.30;99.90;;;;;;5034401;28;20030;-71
2022/05/05 06:31:33;;;;;;;4.85;2.33;;;9.40;99.90;;;;;;5034878;28;20380;-70
2022/05/05 06:33:58;;;;;;;4.68;2.55;;;9.40;99.90;;;;;;5035622;28;20105;-69
2022/05/05 06:36:24;;;;;;;6.72;2.83;;;9.50;99.90;;;;;;5035054;28;20458;-70
2022/05/05 06:38:53;;;;;;;6.35;2.72;;;9.60;99.90;;;;;;5033904;28;20049;-70
2022/05/05 06:41:20;;;;;;;3.58;2.05;;;9.70;99.90;;;;;;5036130;28;20033;-69
2022/05/05 06:43:46;;;;;;;5.63;2.17;;;9.70;99.90;;;;;;5031739;28;20048;-71
2022/05/05 06:46:12;;;;;;;7.75;2.33;;;9.80;99.90;;;;;;5034039;28;20081;-70
2022/05/05 06:48:38;;;;;;;3.70;1.80;;;9.80;99.90;;;;;;5034340;28;20033;-71
2022/05/05 06:51:04;;;;;;;12.85;2.72;;;9.90;99.90;;;;;;5034389;28;20109;-71
2022/05/05 06:53:29;;;;;;;3.20;2.33;;;9.90;99.90;;;;;;5034836;28;20025;-69
2022/05/05 06:55:58;;;;;;;7.57;2.10;;;10.00;99.90;;;;;;5033393;28;20044;-70
2022/05/05 06:58:25;;;;;;;5.13;2.33;;;10.00;99.90;;;;;;5034883;28;20442;-70
2022/05/05 07:03:35;;;;;;;8.25;1.73;;;10.10;99.90;;;;;;5034954;28;20056;-73
2022/05/05 07:06:01;;;;;;;5.07;2.35;;;10.10;99.90;;;;;;5032432;28;20128;-71
2022/05/05 07:08:28;;;;;;;5.18;2.25;;;10.20;99.90;;;;;;5034052;28;20018;-70
2022/05/05 07:10:53;;;;;;;10.93;2.80;;;10.30;99.90;;;;;;5033811;28;20029;-70
2022/05/05 07:13:24;;;;;;;6.30;2.28;;;10.40;99.90;;;;;;5034080;28;20026;-71
2022/05/05 07:15:50;;;;;;;3.13;1.70;;;10.40;99.90;;;;;;5035339;28;21798;-70
2022/05/05 07:18:16;;;;;;;2.42;1.65;;;10.40;99.90;;;;;;5035156;28;20030;-70
2022/05/05 07:20:43;;;;;;;6.63;2.78;;;10.50;99.90;;;;;;5034685;28;20037;-70
2022/05/05 07:23:12;;;;;;;4.13;2.10;;;10.50;99.90;;;;;;5035020;28;20018;-70
2022/05/05 07:25:39;;;;;;;17.08;2.40;;;10.50;99.90;;;;;;5034597;28;20077;-69
2022/05/05 07:28:05;;;;;;;3.83;1.88;;;10.50;99.90;;;;;;5032706;28;20385;-70
2022/05/05 07:30:31;;;;;;;2.45;1.73;;;10.60;99.90;;;;;;5033540;28;20721;-69
2022/05/05 07:32:57;;;;;;;4.90;2.38;;;10.60;99.90;;;;;;5033090;28;20821;-71
2022/05/05 07:35:23;;;;;;;16.20;2.13;;;10.70;99.90;;;;;;5032796;28;20030;-70
2022/05/05 07:37:49;;;;;;;5.40;2.28;;;10.70;99.90;;;;;;5032385;28;20116;-69
2022/05/05 07:40:16;;;;;;;3.42;2.25;;;10.70;99.90;;;;;;5033312;28;20022;-70
2022/05/05 07:42:42;;;;;;;3.22;2.10;;;10.80;99.90;;;;;;5033230;28;20060;-70
2022/05/05 07:45:09;;;;;;;6.85;2.40;;;10.80;99.90;;;;;;5033787;28;20049;-71
2022/05/05 07:47:34;;;;;;;2.58;1.85;;;10.90;99.90;;;;;;5033549;28;20034;-70
2022/05/05 07:50:01;;;;;;;8.00;2.47;;;11.00;99.90;;;;;;5034411;28;20036;-69
2022/05/05 07:52:43;;;;;;;3.80;2.00;;;11.00;99.90;;;;;;5031004;28;20030;-69
2022/05/05 07:55:11;;;;;;;5.10;1.85;;;11.10;99.90;;;;;;5032660;28;20026;-70
2022/05/05 07:57:47;;;;;;;3.28;1.73;;;11.20;99.90;;;;;;5033049;28;20061;-70
2022/05/05 08:00:14;;;;;;;2.25;1.80;;;11.30;99.90;;;;;;5032713;28;20040;-70
2022/05/05 08:02:40;;;;;;;6.20;1.95;;;11.40;99.90;;;;;;5033476;28;20022;-70
2022/05/05 08:05:09;;;;;;;5.38;2.45;;;11.50;99.90;;;;;;5033015;28;20049;-69
2022/05/05 08:07:35;;;;;;;9.75;1.92;;;11.60;99.90;;;;;;5034753;28;20030;-69
2022/05/05 08:10:01;;;;;;;4.43;2.28;;;11.60;99.90;;;;;;5034169;28;20513;-69
2022/05/05 08:12:27;;;;;;;13.15;2.47;;;11.60;99.90;;;;;;5032676;28;20030;-69
2022/05/05 08:14:53;;;;;;;9.75;2.15;;;11.70;99.90;;;;;;5032501;28;20108;-70
2022/05/05 08:17:18;;;;;;;4.35;2.22;;;11.70;99.90;;;;;;5032155;28;20041;-70
2022/05/05 08:19:44;;;;;;;4.55;2.60;;;11.90;99.90;;;;;;5033846;28;20036;-70
2022/05/05 08:22:10;;;;;;;8.90;2.80;;;11.90;99.90;;;;;;5034098;28;20026;-70
2022/05/05 08:30:09;;;;;;;5.63;2.08;;;12.20;99.90;;;;;;5033626;28;20603;-71
2022/05/05 08:32:35;;;;;;;5.95;1.60;;;12.30;99.90;;;;;;5032710;28;20025;-71
2022/05/05 08:35:01;;;;;;;4.15;2.47;;;12.30;99.90;;;;;;5032678;28;20029;-70
2022/05/05 08:37:27;;;;;;;6.40;2.08;;;12.30;99.90;;;;;;5033338;28;20057;-70
2022/05/05 08:39:53;;;;;;;3.92;2.42;;;12.40;99.90;;;;;;5032140;28;20025;-72
2022/05/05 08:42:18;;;;;;;6.28;2.50;;;12.40;99.90;;;;;;5032924;28;20080;-71
2022/05/05 08:44:44;;;;;;;2.72;1.60;;;12.50;99.90;;;;;;5031551;28;20025;-70
2022/05/05 08:47:14;;;;;;;5.20;1.90;;;12.40;99.90;;;;;;5032359;28;20018;-70
2022/05/05 08:49:42;;;;;;;2.53;1.83;;;12.50;99.90;;;;;;5032992;28;20097;-70
2022/05/05 08:52:10;;;;;;;3.47;1.67;;;12.70;99.90;;;;;;5033541;28;20050;-70
2022/05/05 08:54:39;;;;;;;12.88;2.53;;;12.90;99.90;;;;;;5033183;28;20176;-69
2022/05/05 08:57:05;;;;;;;10.70;2.63;;;13.10;99.90;;;;;;5032807;28;20152;-69
2022/05/05 08:59:31;;;;;;;6.68;2.03;;;13.30;99.90;;;;;;5033146;28;20030;-68
2022/05/05 09:01:57;;;;;;;13.48;2.40;;;13.40;99.90;;;;;;5033988;28;20057;-69
2022/05/05 09:04:23;;;;;;;3.20;1.90;;;13.60;99.90;;;;;;5030299;28;20049;-70
2022/05/05 09:06:51;;;;;;;13.48;1.83;;;13.80;99.90;;;;;;5032598;28;20075;-69
2022/05/05 09:09:24;;;;;;;3.08;1.73;;;13.80;99.90;;;;;;5032435;28;20473;-72
2022/05/05 09:12:13;;;;;;;8.13;2.17;;;13.90;99.90;;;;;;5031453;28;20033;-70
2022/05/05 09:14:46;;;;;;;4.57;1.95;;;13.80;99.90;;;;;;5031939;28;20029;-70
2022/05/05 09:17:21;;;;;;;5.85;1.88;;;13.90;99.90;;;;;;5031598;28;20034;-71
2022/05/05 09:19:50;;;;;;;;;;;13.90;99.90;;;;;;5030626;28;20041;-70
2022/05/05 09:22:18;;;;;;;2.63;1.60;;;13.90;99.90;;;;;;5032808;28;19906;-71
2022/05/05 09:24:49;;;;;;;5.03;2.17;;;13.80;99.90;;;;;;5031726;28;20062;-70
2022/05/05 09:27:20;;;;;;;5.95;2.65;;;13.80;99.90;;;;;;5032107;28;20037;-73
2022/05/05 09:30:13;;;;;;;3.50;1.98;;;13.90;99.90;;;;;;5030298;28;20434;-70
2022/05/05 09:32:47;;;;;;;4.45;1.45;;;13.90;99.90;;;;;;5032017;28;20056;-71
2022/05/05 09:35:19;;;;;;;8.32;2.10;;;13.90;99.90;;;;;;5032076;28;20018;-72
2022/05/05 09:37:50;;;;;;;0.93;0.85;;;14.20;99.90;;;;;;5031915;28;20057;-71
2022/05/05 09:40:18;;;;;;;3.10;1.52;;;14.20;99.90;;;;;;5031561;28;20505;-70
2022/05/05 09:42:49;;;;;;;1.60;1.00;;;14.40;99.90;;;;;;5031754;28;20076;-70
2022/05/05 09:45:29;;;;;;;5.90;1.80;;;14.60;99.90;;;;;;5031128;28;20088;-71
2022/05/05 09:48:02;;;;;;;3.13;1.23;;;14.90;99.90;;;;;;5031760;28;20033;-70
2022/05/05 09:50:32;;;;;;;5.90;1.73;;;14.80;99.90;;;;;;5031621;28;20085;-74
2022/05/05 09:58:35;;;;;;;1.98;1.25;;;15.00;99.90;;;;;;5031583;28;20041;-70
2022/05/05 10:01:10;;;;;;;3.67;1.25;;;15.00;99.90;;;;;;5030939;28;20068;-69
2022/05/05 10:04:05;;;;;;;2.45;1.25;;;15.10;99.90;;;;;;5031749;28;20026;-71
2022/05/05 10:06:34;;;;;;;2.30;1.33;;;15.20;99.90;;;;;;5033378;28;20046;-70
2022/05/05 10:09:04;;;;;;;5.97;1.30;;;15.40;99.90;;;;;;5035086;28;20106;-69
2022/05/05 10:11:31;;;;;;;1.90;1.05;;;15.60;99.90;;;;;;5035633;28;20157;-69
2022/05/05 10:13:57;;;;;;;2.70;1.30;;;15.70;99.90;;;;;;5034964;28;20030;-71
2022/05/05 10:16:22;;;;;;;4.55;1.30;;;15.80;99.90;;;;;;5034728;28;20084;-70
2022/05/05 10:18:51;;;;;;;2.53;1.02;;;15.90;99.90;;;;;;5035106;28;20022;-70
2022/05/05 10:21:21;;;;;;;2.83;1.45;;;16.10;99.90;;;;;;5035205;28;20026;-69
2022/05/05 10:23:56;;;;;;;2.80;1.40;;;16.10;99.90;;;;;;5034454;28;20033;-71
2022/05/05 10:26:23;;;;;;;2.97;1.38;;;16.10;99.90;;;;;;5034166;28;20042;-71
2022/05/05 10:28:49;;;;;;;4.88;1.08;;;16.30;99.90;;;;;;5034858;28;20021;-70
2022/05/05 10:31:30;;;;;;;10.55;1.50;;;16.40;99.90;;;;;;5034993;28;20028;-68
2022/05/05 10:34:01;;;;;;;2.92;1.38;;;16.60;99.90;;;;;;5034915;28;20026;-70
2022/05/05 10:36:28;;;;;;;2.85;1.30;;;16.80;99.90;;;;;;5034718;28;20037;-71
2022/05/05 10:38:54;;;;;;;3.83;1.20;;;16.80;99.90;;;;;;5034517;28;20068;-70
2022/05/05 10:41:39;;;;;;;4.35;1.35;;;16.80;99.90;;;;;;5035258;28;20053;-70
2022/05/05 10:44:16;;;;;;;1.67;1.00;;;16.90;99.90;;;;;;5035079;28;20037;-69
2022/05/05 10:47:03;;;;;;;10.57;2.05;;;17.00;99.90;;;;;;5034876;28;20045;-70
2022/05/05 10:49:31;;;;;;;1.88;1.17;;;17.10;99.90;;;;;;5035243;28;20835;-70
2022/05/05 10:52:10;;;;;;;2.38;0.88;;;17.10;99.90;;;;;;5035592;28;20053;-70
2022/05/05 10:54:46;;;;;;;7.93;1.30;;;17.20;99.90;;;;;;5033104;28;20030;-69
2022/05/05 10:57:27;;;;;;;8.55;0.98;;;17.30;99.90;;;;;;5033803;28;20041;-69
2022/05/05 11:00:09;;;;;;;16.52;1.63;;;17.50;99.90;;;;;;5034873;28;20521;-69
2022/05/05 11:02:36;;;;;;;3.17;1.30;;;17.80;99.90;;;;;;5034282;28;20096;-70
2022/05/05 11:05:20;;;;;;;10.73;1.42;;;17.90;99.90;;;;;;5034073;28;20097;-69
2022/05/05 11:07:51;;;;;;;1.80;1.10;;;17.90;99.90;;;;;;5033509;28;20034;-71
2022/05/05 11:10:35;;;;;;;1.35;0.85;;;18.00;99.90;;;;;;5034327;28;20084;-69
2022/05/05 11:13:01;;;;;;;1.55;1.05;;;18.00;99.90;;;;;;5032874;28;20046;-71
2022/05/05 11:21:35;;;;;;;4.80;1.05;;;18.20;99.90;;;;;;5034751;28;20912;-70
2022/05/05 11:24:02;;;;;;;0.82;0.75;;;18.40;99.90;;;;;;5034603;28;20018;-69
2022/05/05 11:26:32;;;;;;;2.65;1.27;;;18.50;99.90;;;;;;5032950;28;20049;-70
2022/05/05 11:28:58;;;;;;;1.58;0.82;;;18.60;99.90;;;;;;5033368;28;20132;-70
2022/05/05 11:31:26;;;;;;;6.78;1.35;;;18.50;99.90;;;;;;5033819;28;20097;-70
2022/05/05 11:33:54;;;;;;;5.50;1.05;;;18.70;99.90;;;;;;5033221;28;20489;-70
2022/05/05 11:36:21;;;;;;;5.80;1.45;;;18.70;99.90;;;;;;5033466;28;20037;-70
2022/05/05 11:38:46;;;;;;;1.02;0.90;;;18.80;99.90;;;;;;5033600;28;20030;-70
2022/05/05 11:41:18;;;;;;;5.55;1.55;;;19.00;99.90;;;;;;5033168;28;20021;-70
2022/05/05 11:46:29;;;;;;;3.00;1.33;;;19.40;99.90;;;;;;5033859;28;20052;-70
2022/05/05 11:48:56;;;;;;;2.53;0.90;;;19.50;99.90;;;;;;5032940;28;20026;-71
2022/05/05 11:51:23;;;;;;;1.77;0.90;;;19.80;99.90;;;;;;5033470;28;20026;-70
2022/05/05 11:53:49;;;;;;;4.72;1.08;;;20.00;99.90;;;;;;5033146;28;20482;-70
2022/05/05 11:56:15;;;;;;;2.20;1.08;;;20.20;99.90;;;;;;5033646;28;20066;-71
2022/05/05 12:01:38;;;;;;;5.35;0.98;;;20.40;99.90;;;;;;5033196;28;20029;-70
2022/05/05 12:04:14;;;;;;;1.52;0.90;;;20.50;99.90;;;;;;5033436;28;20114;-70
2022/05/05 12:06:40;;;;;;;2.53;1.40;;;20.70;99.90;;;;;;5033963;28;20043;-70
2022/05/05 12:09:07;;;;;;;4.50;0.90;;;20.70;99.90;;;;;;5033336;28;20034;-69
2022/05/05 12:11:33;;;;;;;1.25;0.77;;;21.10;99.90;;;;;;5033542;28;20033;-70
2022/05/05 12:14:06;;;;;;;3.63;1.58;;;21.40;99.90;;;;;;5033160;28;20030;-69
2022/05/05 12:16:34;;;;;;;2.38;1.20;;;21.70;99.90;;;;;;5032868;28;20065;-71
2022/05/05 12:19:00;;;;;;;4.45;1.55;;;21.90;99.90;;;;;;5032871;28;20033;-70
2022/05/05 12:21:27;;;;;;;3.42;1.20;;;21.70;97.70;;;;;;5033089;28;20068;-73
2022/05/05 12:24:00;;;;;;;2.03;0.90;;;21.50;99.90;;;;;;5033526;28;20076;-71
2022/05/05 12:26:32;;;;;;;1.50;1.05;;;21.40;99.90;;;;;;5033443;28;20482;-72
2022/05/05 12:28:58;;;;;;;6.57;1.38;;;21.40;99.90;;;;;;5032049;28;20077;-72
2022/05/05 12:31:25;;;;;;;2.42;1.08;;;21.30;99.90;;;;;;5032501;28;20032;-70
2022/05/05 12:33:51;;;;;;;5.47;1.40;;;21.10;99.90;;;;;;5032635;28;20021;-71
2022/05/05 12:36:17;;;;;;;2.63;1.42;;;21.00;99.90;;;;;;5032377;28;20537;-70
2022/05/05 12:38:43;;;;;;;5.75;1.48;;;20.80;99.90;;;;;;5033070;28;20496;-70
2022/05/05 12:41:10;;;;;;;1.67;0.95;;;20.80;99.90;;;;;;5030779;28;20056;-71
2022/05/05 12:43:37;;;;;;;7.05;0.70;;;20.80;99.90;;;;;;5032127;28;20018;-71
2022/05/05 12:46:04;;;;;;;2.20;0.98;;;20.70;99.90;;;;;;5031865;28;20109;-72
2022/05/05 12:48:31;;;;;;;2.17;0.70;;;20.90;99.90;;;;;;5032438;28;20064;-73
2022/05/05 12:50:57;;;;;;;1.45;0.65;;;21.00;98.60;;;;;;5030673;28;20018;-73
2022/05/05 13:02:01;;;;;;;2.47;0.90;;;21.40;99.10;;;;;;5032454;28;20080;-74
2022/05/05 13:04:27;;;;;;;1.88;0.65;;;21.40;98.40;;;;;;5032060;28;20030;-69
2022/05/05 13:06:52;;;;;;;1.50;0.38;;;21.10;95.70;;;;;;5032061;28;20516;-72
2022/05/05 13:09:19;;;;;;;1.27;0.77;;;21.10;98.10;;;;;;5031162;28;20075;-72
2022/05/05 13:11:48;;;;;;;2.35;0.77;;;21.10;97.20;;;;;;5038225;28;20021;-72
2022/05/05 13:14:15;;;;;;;2.03;0.73;;;21.30;98.40;;;;;;5032124;28;20034;-71
2022/05/05 13:16:41;;;;;;;2.10;1.10;;;21.50;98.50;;;;;;5032398;28;20044;-70
2022/05/05 13:19:07;;;;;;;4.05;0.82;;;21.90;99.10;;;;;;5032556;28;20029;-71
2022/05/05 13:21:33;;;;;;;2.13;0.93;;;22.20;95.80;;;;;;5032274;28;20058;-72
2022/05/05 13:23:59;;;;;;;1.42;0.77;;;22.10;97.20;;;;;;5032535;28;20389;-71
2022/05/05 13:26:25;;;;;;;1.10;0.55;;;22.30;96.20;;;;;;5032145;28;20041;-72
2022/05/05 13:28:51;;;;;;;5.15;0.77;;;22.50;96.50;;;;;;5033166;28;20032;-72
2022/05/05 13:31:17;;;;;;;1.55;0.60;;;22.60;96.60;;;;;;5031160;28;20021;-72
2022/05/05 13:33:43;;;;;;;0.70;0.38;;;22.60;93.30;;;;;;5031261;28;20036;-72
2022/05/05 13:36:10;;;;;;;2.03;0.60;;;22.40;93.90;;;;;;5032474;28;20381;-72
2022/05/05 13:38:36;;;;;;;0.40;0.40;;;22.20;95.30;;;;;;5032585;28;20804;-71
2022/05/05 13:41:03;;;;;;;4.00;0.70;;;22.00;95.50;;;;;;5032959;28;20064;-69